sensor_id;sensor_type;location;lat;lon;timestamp;temperature;humidity
16970;DHT22;8601;48.718;8.992;2023-07-31T00:01:28;15.70;99.90
16970;DHT22;8601;48.718;8.992;2023-07-31T00:03:55;15.70;99.90
16970;DHT22;8601;48.718;8.992;2023-07-31T00:06:23;15.60;99.90
16970;DHT22;8601;48.718;8.992;2023-07-31T00:08:50;15.50;99.90
16970;DHT22;8601;48.718;8.992;2023-07-31T00:11:18;15.50;99.90
16970;DHT22;8601;48.718;8.992;2023-07-31T00:13:44;15.40;99.90
16970;DHT22;8601;48.718;8.992;2023-07-31T00:16:11;15.40;99.90
16970;DHT22;8601;48.718;8.992;2023-07-31T00:18:38;15.30;99.90
16970;DHT22;8601;48.718;8.992;2023-07-31T00:21:05;15.40;99.90
16970;DHT22;8601;48.718;8.992;2023-07-31T00:23:33;15.30;99.90
16970;DHT22;8601;48.718;8.992;2023-07-31T00:26:00;15.40;99.90
16970;DHT22;8601;48.718;8.992;2023-07-31T00:28:27;15.40;99.90
16970;DHT22;8601;48.718;8.992;2023-07-31T00:30:54;15.40;99.90
16970;DHT22;8601;48.718;8.992;2023-07-31T00:33:21;15.40;99.90
16970;DHT22;8601;48.718;8.992;2023-07-31T00:35:48;15.30;99.90
16970;DHT22;8601;48.718;8.992;2023-07-31T00:38:15;15.20;99.90
16970;DHT22;8601;48.718;8.992;2023-07-31T00:40:43;15.20;99.90
16970;DHT22;8601;48.718;8.992;2023-07-31T00:43:10;15.10;99.90
16970;DHT22;8601;48.718;8.992;2023-07-31T00:45:37;15.00;99.90
16970;DHT22;8601;48.718;8.992;2023-07-31T00:48:05;15.00;99.90
16970;DHT22;8601;48.718;8.992;2023-07-31T00:50:33;14.90;99.90
16970;DHT22;8601;48.718;8.992;2023-07-31T00:53:00;14.90;99.90
16970;DHT22;8601;48.718;8.992;2023-07-31T00:55:27;14.90;99.90
16970;DHT22;8601;48.718;8.992;2023-07-31T00:57:55;14.80;99.90
16970;DHT22;8601;48.718;8.992;2023-07-31T01:00:22;14.80;99.90
16970;DHT22;8601;48.718;8.992;2023-07-31T01:02:51;14.80;99.90
16970;DHT22;8601;48.718;8.992;2023-07-31T01:05:22;14.80;99.90
16970;DHT22;8601;48.718;8.992;2023-07-31T01:07:59;14.80;99.90
16970;DHT22;8601;48.718;8.992;2023-07-31T01:10:30;14.80;99.90
16970;DHT22;8601;48.718;8.992;2023-07-31T01:12:59;14.70;99.90
16970;DHT22;8601;48.718;8.992;2023-07-31T01:15:25;14.60;99.90
16970;DHT22;8601;48.718;8.992;2023-07-31T01:17:52;14.60;99.90
16970;DHT22;8601;48.718;8.992;2023-07-31T01:20:22;14.60;99.90
16970;DHT22;8601;48.718;8.992;2023-07-31T01:23:17;14.70;99.90
16970;DHT22;8601;48.718;8.992;2023-07-31T01:26:03;14.60;99.90
16970;DHT22;8601;48.718;8.992;2023-07-31T01:28:39;14.70;99.90
16970;DHT22;8601;48.718;8.992;2023-07-31T01:31:08;14.60;99.90
16970;DHT22;8601;48.718;8.992;2023-07-31T01:33:36;14.60;99.90
16970;DHT22;8601;48.718;8.992;2023-07-31T01:36:04;14.60;99.90
16970;DHT22;8601;48.718;8.992;2023-07-31T01:38:31;14.60;99.90
16970;DHT22;8601;48.718;8.992;2023-07-31T01:40:59;14.60;99.90
16970;DHT22;8601;48.718;8.992;2023-07-31T01:43:26;14.50;99.90
16970;DHT22;8601;48.718;8.992;2023-07-31T01:45:53;14.40;99.90
16970;DHT22;8601;48.718;8.992;2023-07-31T01:48:20;14.40;99.90
16970;DHT22;8601;48.718;8.992;2023-07-31T01:50:47;14.40;99.90
16970;DHT22;8601;48.718;8.992;2023-07-31T01:53:15;14.30;99.90
16970;DHT22;8601;48.718;8.992;2023-07-31T01:55:42;14.40;99.90
16970;DHT22;8601;48.718;8.992;2023-07-31T01:58:10;14.30;99.90
16970;DHT22;8601;48.718;8.992;2023-07-31T02:00:37;14.40;99.90
16970;DHT22;8601;48.718;8.992;2023-07-31T02:03:05;14.40;99.90
16970;DHT22;8601;48.718;8.992;2023-07-31T02:05:32;14.40;99.90
16970;DHT22;8601;48.718;8.992;2023-07-31T02:07:59;14.30;99.90
16970;DHT22;8601;48.718;8.992;2023-07-31T02:10:27;14.30;99.90
16970;DHT22;8601;48.718;8.992;2023-07-31T02:12:54;14.30;99.90
16970;DHT22;8601;48.718;8.992;2023-07-31T02:15:22;14.30;99.90
16970;DHT22;8601;48.718;8.992;2023-07-31T02:17:49;14.30;99.90
16970;DHT22;8601;48.718;8.992;2023-07-31T02:20:16;14.30;99.90
16970;DHT22;8601;48.718;8.992;2023-07-31T02:22:42;14.20;99.90
16970;DHT22;8601;48.718;8.992;2023-07-31T02:25:09;14.30;99.90
16970;DHT22;8601;48.718;8.992;2023-07-31T02:27:36;14.20;99.90
16970;DHT22;8601;48.718;8.992;2023-07-31T02:30:04;14.10;99.90
16970;DHT22;8601;48.718;8.992;2023-07-31T02:32:32;14.20;99.90
16970;DHT22;8601;48.718;8.992;2023-07-31T02:34:59;14.20;99.90
16970;DHT22;8601;48.718;8.992;2023-07-31T02:37:26;14.20;99.90
16970;DHT22;8601;48.718;8.992;2023-07-31T02:39:54;14.10;99.90
16970;DHT22;8601;48.718;8.992;2023-07-31T02:42:21;14.10;99.90
16970;DHT22;8601;48.718;8.992;2023-07-31T02:44:48;14.10;99.90
16970;DHT22;8601;48.718;8.992;2023-07-31T02:47:16;14.10;99.90
16970;DHT22;8601;48.718;8.992;2023-07-31T02:49:44;14.10;99.90
16970;DHT22;8601;48.718;8.992;2023-07-31T02:52:11;14.10;99.90
16970;DHT22;8601;48.718;8.992;2023-07-31T02:54:38;14.10;99.90
16970;DHT22;8601;48.718;8.992;2023-07-31T02:57:05;14.10;99.90
16970;DHT22;8601;48.718;8.992;2023-07-31T02:59:32;14.00;99.90
16970;DHT22;8601;48.718;8.992;2023-07-31T03:02:00;14.00;99.90
16970;DHT22;8601;48.718;8.992;2023-07-31T03:04:26;14.00;99.90
16970;DHT22;8601;48.718;8.992;2023-07-31T03:06:55;14.00;99.90
16970;DHT22;8601;48.718;8.992;2023-07-31T03:09:21;14.00;99.90
16970;DHT22;8601;48.718;8.992;2023-07-31T03:11:48;14.10;99.90
16970;DHT22;8601;48.718;8.992;2023-07-31T03:14:15;14.10;99.90
16970;DHT22;8601;48.718;8.992;2023-07-31T03:16:42;14.10;99.90
16970;DHT22;8601;48.718;8.992;2023-07-31T03:19:09;14.10;99.90
16970;DHT22;8601;48.718;8.992;2023-07-31T03:21:36;14.00;99.90
16970;DHT22;8601;48.718;8.992;2023-07-31T03:24:04;14.00;99.90
16970;DHT22;8601;48.718;8.992;2023-07-31T03:26:31;14.00;99.90
16970;DHT22;8601;48.718;8.992;2023-07-31T03:28:58;13.90;99.90
16970;DHT22;8601;48.718;8.992;2023-07-31T03:31:25;13.80;99.90
16970;DHT22;8601;48.718;8.992;2023-07-31T03:33:52;13.90;99.90
16970;DHT22;8601;48.718;8.992;2023-07-31T03:36:19;13.90;99.90
16970;DHT22;8601;48.718;8.992;2023-07-31T03:38:46;13.80;99.90
16970;DHT22;8601;48.718;8.992;2023-07-31T03:41:14;13.90;99.90
16970;DHT22;8601;48.718;8.992;2023-07-31T03:43:41;13.90;99.90
16970;DHT22;8601;48.718;8.992;2023-07-31T03:46:08;13.90;99.90
16970;DHT22;8601;48.718;8.992;2023-07-31T03:48:35;14.00;99.90
16970;DHT22;8601;48.718;8.992;2023-07-31T03:51:02;14.00;99.90
16970;DHT22;8601;48.718;8.992;2023-07-31T03:53:28;14.10;99.90
16970;DHT22;8601;48.718;8.992;2023-07-31T03:55:55;14.10;99.90
16970;DHT22;8601;48.718;8.992;2023-07-31T03:58:24;14.10;99.90
16970;DHT22;8601;48.718;8.992;2023-07-31T04:00:51;14.20;99.90
16970;DHT22;8601;48.718;8.992;2023-07-31T04:03:17;14.20;99.90
16970;DHT22;8601;48.718;8.992;2023-07-31T04:05:44;14.20;99.90
16970;DHT22;8601;48.718;8.992;2023-07-31T04:08:11;14.20;99.90
16970;DHT22;8601;48.718;8.992;2023-07-31T04:10:38;14.20;99.90
16970;DHT22;8601;48.718;8.992;2023-07-31T04:13:05;14.30;99.90
16970;DHT22;8601;48.718;8.992;2023-07-31T04:15:33;14.30;99.90
16970;DHT22;8601;48.718;8.992;2023-07-31T04:18:00;14.30;99.90
16970;DHT22;8601;48.718;8.992;2023-07-31T04:20:26;14.40;99.90
16970;DHT22;8601;48.718;8.992;2023-07-31T04:22:53;14.40;99.90
16970;DHT22;8601;48.718;8.992;2023-07-31T04:25:20;14.40;99.90
16970;DHT22;8601;48.718;8.992;2023-07-31T04:27:47;14.40;99.90
16970;DHT22;8601;48.718;8.992;2023-07-31T04:30:14;14.40;99.90
16970;DHT22;8601;48.718;8.992;2023-07-31T04:32:42;14.40;99.90
16970;DHT22;8601;48.718;8.992;2023-07-31T04:35:10;14.40;99.90
16970;DHT22;8601;48.718;8.992;2023-07-31T04:37:36;14.40;99.90
16970;DHT22;8601;48.718;8.992;2023-07-31T04:40:04;14.40;99.90
16970;DHT22;8601;48.718;8.992;2023-07-31T04:42:31;14.40;99.90
16970;DHT22;8601;48.718;8.992;2023-07-31T04:44:58;14.40;99.90
16970;DHT22;8601;48.718;8.992;2023-07-31T04:47:25;14.40;99.90
16970;DHT22;8601;48.718;8.992;2023-07-31T04:49:53;14.40;99.90
16970;DHT22;8601;48.718;8.992;2023-07-31T04:52:20;14.50;99.90
16970;DHT22;8601;48.718;8.992;2023-07-31T04:54:47;14.50;99.90
16970;DHT22;8601;48.718;8.992;2023-07-31T04:57:14;14.50;99.90
16970;DHT22;8601;48.718;8.992;2023-07-31T04:59:41;14.40;99.90
16970;DHT22;8601;48.718;8.992;2023-07-31T05:02:08;14.50;99.90
16970;DHT22;8601;48.718;8.992;2023-07-31T05:04:35;14.50;99.90
16970;DHT22;8601;48.718;8.992;2023-07-31T05:07:04;14.50;99.90
16970;DHT22;8601;48.718;8.992;2023-07-31T05:09:31;14.50;99.90
16970;DHT22;8601;48.718;8.992;2023-07-31T05:11:58;14.50;99.90
16970;DHT22;8601;48.718;8.992;2023-07-31T05:14:25;14.60;99.90
16970;DHT22;8601;48.718;8.992;2023-07-31T05:16:52;14.60;99.90
16970;DHT22;8601;48.718;8.992;2023-07-31T05:19:19;14.60;99.90
16970;DHT22;8601;48.718;8.992;2023-07-31T05:21:46;14.60;99.90
16970;DHT22;8601;48.718;8.992;2023-07-31T05:24:14;14.60;99.90
16970;DHT22;8601;48.718;8.992;2023-07-31T05:26:41;14.60;99.90
16970;DHT22;8601;48.718;8.992;2023-07-31T05:29:08;14.60;99.90
16970;DHT22;8601;48.718;8.992;2023-07-31T05:31:35;14.70;99.90
16970;DHT22;8601;48.718;8.992;2023-07-31T05:34:03;14.70;99.90
16970;DHT22;8601;48.718;8.992;2023-07-31T05:36:30;14.80;99.90
16970;DHT22;8601;48.718;8.992;2023-07-31T05:38:57;14.80;99.90
16970;DHT22;8601;48.718;8.992;2023-07-31T05:41:25;14.90;99.90
16970;DHT22;8601;48.718;8.992;2023-07-31T05:43:52;14.90;99.90
16970;DHT22;8601;48.718;8.992;2023-07-31T05:46:19;15.00;99.90
16970;DHT22;8601;48.718;8.992;2023-07-31T05:48:47;15.00;99.90
16970;DHT22;8601;48.718;8.992;2023-07-31T05:51:14;15.10;99.90
16970;DHT22;8601;48.718;8.992;2023-07-31T05:53:40;15.10;99.90
16970;DHT22;8601;48.718;8.992;2023-07-31T05:56:07;15.20;99.90
16970;DHT22;8601;48.718;8.992;2023-07-31T05:58:36;15.30;99.90
16970;DHT22;8601;48.718;8.992;2023-07-31T06:01:03;15.40;99.90
16970;DHT22;8601;48.718;8.992;2023-07-31T06:03:29;15.50;99.90
16970;DHT22;8601;48.718;8.992;2023-07-31T06:05:56;15.50;99.90
16970;DHT22;8601;48.718;8.992;2023-07-31T06:08:23;15.50;99.90
16970;DHT22;8601;48.718;8.992;2023-07-31T06:10:50;15.60;99.90
16970;DHT22;8601;48.718;8.992;2023-07-31T06:13:17;15.70;99.90
16970;DHT22;8601;48.718;8.992;2023-07-31T06:15:46;15.70;99.90
16970;DHT22;8601;48.718;8.992;2023-07-31T06:18:12;15.80;99.90
16970;DHT22;8601;48.718;8.992;2023-07-31T06:20:39;15.80;99.90
16970;DHT22;8601;48.718;8.992;2023-07-31T06:23:06;15.90;99.90
16970;DHT22;8601;48.718;8.992;2023-07-31T06:25:33;15.90;99.90
16970;DHT22;8601;48.718;8.992;2023-07-31T06:28:00;16.00;99.90
16970;DHT22;8601;48.718;8.992;2023-07-31T06:30:27;16.00;99.90
16970;DHT22;8601;48.718;8.992;2023-07-31T06:32:55;16.10;99.90
16970;DHT22;8601;48.718;8.992;2023-07-31T06:35:22;16.10;99.90
16970;DHT22;8601;48.718;8.992;2023-07-31T06:37:49;16.20;99.90
16970;DHT22;8601;48.718;8.992;2023-07-31T06:40:16;16.30;99.90
16970;DHT22;8601;48.718;8.992;2023-07-31T06:42:44;16.30;99.90
16970;DHT22;8601;48.718;8.992;2023-07-31T06:45:11;16.40;99.90
16970;DHT22;8601;48.718;8.992;2023-07-31T06:47:38;16.50;99.90
16970;DHT22;8601;48.718;8.992;2023-07-31T06:50:08;16.50;99.90
16970;DHT22;8601;48.718;8.992;2023-07-31T06:52:35;16.60;99.90
16970;DHT22;8601;48.718;8.992;2023-07-31T06:55:03;16.70;99.90
16970;DHT22;8601;48.718;8.992;2023-07-31T06:57:30;16.70;99.90
16970;DHT22;8601;48.718;8.992;2023-07-31T06:59:58;16.60;99.90
16970;DHT22;8601;48.718;8.992;2023-07-31T07:02:25;16.70;99.90
16970;DHT22;8601;48.718;8.992;2023-07-31T07:04:52;16.70;99.90
16970;DHT22;8601;48.718;8.992;2023-07-31T07:07:21;16.90;99.90
16970;DHT22;8601;48.718;8.992;2023-07-31T07:09:48;17.00;99.90
16970;DHT22;8601;48.718;8.992;2023-07-31T07:12:14;17.20;99.90
16970;DHT22;8601;48.718;8.992;2023-07-31T07:14:42;17.30;99.90
16970;DHT22;8601;48.718;8.992;2023-07-31T07:17:09;17.40;99.90
16970;DHT22;8601;48.718;8.992;2023-07-31T07:19:35;17.50;99.90
16970;DHT22;8601;48.718;8.992;2023-07-31T07:22:02;17.50;99.90
16970;DHT22;8601;48.718;8.992;2023-07-31T07:24:31;17.60;99.90
16970;DHT22;8601;48.718;8.992;2023-07-31T07:26:58;17.60;99.90
16970;DHT22;8601;48.718;8.992;2023-07-31T07:29:24;17.70;99.90
16970;DHT22;8601;48.718;8.992;2023-07-31T07:31:51;17.60;99.90
16970;DHT22;8601;48.718;8.992;2023-07-31T07:34:18;17.70;99.90
16970;DHT22;8601;48.718;8.992;2023-07-31T07:36:45;17.70;99.90
16970;DHT22;8601;48.718;8.992;2023-07-31T07:39:12;17.60;99.90
16970;DHT22;8601;48.718;8.992;2023-07-31T07:41:40;17.60;99.90
16970;DHT22;8601;48.718;8.992;2023-07-31T07:44:08;17.60;99.90
16970;DHT22;8601;48.718;8.992;2023-07-31T07:46:35;17.70;99.90
16970;DHT22;8601;48.718;8.992;2023-07-31T07:49:02;17.80;99.90
16970;DHT22;8601;48.718;8.992;2023-07-31T07:51:28;17.80;99.90
16970;DHT22;8601;48.718;8.992;2023-07-31T07:53:57;17.90;99.90
16970;DHT22;8601;48.718;8.992;2023-07-31T07:56:25;18.00;99.90
16970;DHT22;8601;48.718;8.992;2023-07-31T07:58:54;18.10;99.90
16970;DHT22;8601;48.718;8.992;2023-07-31T08:01:21;18.20;99.90
16970;DHT22;8601;48.718;8.992;2023-07-31T08:03:48;18.40;99.90
16970;DHT22;8601;48.718;8.992;2023-07-31T08:06:15;18.40;99.60
16970;DHT22;8601;48.718;8.992;2023-07-31T08:08:42;18.40;99.00
16970;DHT22;8601;48.718;8.992;2023-07-31T08:11:09;18.40;99.20
16970;DHT22;8601;48.718;8.992;2023-07-31T08:13:36;18.60;99.70
16970;DHT22;8601;48.718;8.992;2023-07-31T08:16:05;18.50;99.00
16970;DHT22;8601;48.718;8.992;2023-07-31T08:18:31;18.60;97.90
16970;DHT22;8601;48.718;8.992;2023-07-31T08:20:58;18.50;97.20
16970;DHT22;8601;48.718;8.992;2023-07-31T08:23:25;18.60;97.30
16970;DHT22;8601;48.718;8.992;2023-07-31T08:25:52;18.70;98.00
16970;DHT22;8601;48.718;8.992;2023-07-31T08:28:19;19.00;97.90
16970;DHT22;8601;48.718;8.992;2023-07-31T08:30:45;19.10;96.10
16970;DHT22;8601;48.718;8.992;2023-07-31T08:33:14;18.90;96.50
16970;DHT22;8601;48.718;8.992;2023-07-31T08:35:41;18.80;97.00
16970;DHT22;8601;48.718;8.992;2023-07-31T08:38:08;18.70;96.40
16970;DHT22;8601;48.718;8.992;2023-07-31T08:40:36;18.80;96.80
16970;DHT22;8601;48.718;8.992;2023-07-31T08:43:03;18.70;96.40
16970;DHT22;8601;48.718;8.992;2023-07-31T08:45:31;18.70;95.90
16970;DHT22;8601;48.718;8.992;2023-07-31T08:47:59;18.70;97.00
16970;DHT22;8601;48.718;8.992;2023-07-31T08:50:27;18.80;96.30
16970;DHT22;8601;48.718;8.992;2023-07-31T08:52:54;18.90;96.90
16970;DHT22;8601;48.718;8.992;2023-07-31T08:55:21;18.90;95.90
16970;DHT22;8601;48.718;8.992;2023-07-31T08:57:50;19.00;96.20
16970;DHT22;8601;48.718;8.992;2023-07-31T09:00:18;19.20;97.00
16970;DHT22;8601;48.718;8.992;2023-07-31T09:06:11;19.60;93.90
16970;DHT22;8601;48.718;8.992;2023-07-31T09:08:41;19.50;93.70
16970;DHT22;8601;48.718;8.992;2023-07-31T09:11:08;19.70;93.90
16970;DHT22;8601;48.718;8.992;2023-07-31T09:13:35;20.00;93.60
16970;DHT22;8601;48.718;8.992;2023-07-31T09:16:03;20.20;93.20
16970;DHT22;8601;48.718;8.992;2023-07-31T09:18:30;20.30;92.60
16970;DHT22;8601;48.718;8.992;2023-07-31T09:21:04;20.20;92.70
16970;DHT22;8601;48.718;8.992;2023-07-31T09:23:45;20.10;92.60
16970;DHT22;8601;48.718;8.992;2023-07-31T09:26:28;20.10;92.60
16970;DHT22;8601;48.718;8.992;2023-07-31T09:28:55;19.80;93.00
16970;DHT22;8601;48.718;8.992;2023-07-31T09:31:32;19.60;92.70
16970;DHT22;8601;48.718;8.992;2023-07-31T09:33:59;19.50;92.80
16970;DHT22;8601;48.718;8.992;2023-07-31T09:36:29;19.50;94.00
16970;DHT22;8601;48.718;8.992;2023-07-31T09:39:02;19.60;93.70
16970;DHT22;8601;48.718;8.992;2023-07-31T09:41:29;19.90;92.60
16970;DHT22;8601;48.718;8.992;2023-07-31T09:43:56;20.00;93.50
16970;DHT22;8601;48.718;8.992;2023-07-31T09:46:27;20.30;93.50
16970;DHT22;8601;48.718;8.992;2023-07-31T09:49:04;20.50;91.70
16970;DHT22;8601;48.718;8.992;2023-07-31T09:51:31;20.50;91.90
16970;DHT22;8601;48.718;8.992;2023-07-31T09:54:09;20.40;92.80
16970;DHT22;8601;48.718;8.992;2023-07-31T09:56:39;20.30;91.30
16970;DHT22;8601;48.718;8.992;2023-07-31T09:59:08;20.60;92.80
16970;DHT22;8601;48.718;8.992;2023-07-31T10:01:37;20.70;90.50
16970;DHT22;8601;48.718;8.992;2023-07-31T10:04:05;20.60;90.10
16970;DHT22;8601;48.718;8.992;2023-07-31T10:06:35;20.70;90.30
16970;DHT22;8601;48.718;8.992;2023-07-31T10:09:02;20.60;90.20
16970;DHT22;8601;48.718;8.992;2023-07-31T10:11:35;20.80;90.50
16970;DHT22;8601;48.718;8.992;2023-07-31T10:14:05;21.10;90.00
16970;DHT22;8601;48.718;8.992;2023-07-31T10:16:35;20.90;86.00
16970;DHT22;8601;48.718;8.992;2023-07-31T10:19:02;21.00;83.80
16970;DHT22;8601;48.718;8.992;2023-07-31T10:21:30;21.20;88.60
16970;DHT22;8601;48.718;8.992;2023-07-31T10:24:01;21.50;88.20
16970;DHT22;8601;48.718;8.992;2023-07-31T10:26:31;21.90;84.40
16970;DHT22;8601;48.718;8.992;2023-07-31T10:28:58;22.10;83.20
16970;DHT22;8601;48.718;8.992;2023-07-31T10:31:26;22.10;85.30
16970;DHT22;8601;48.718;8.992;2023-07-31T10:33:54;22.30;83.40
16970;DHT22;8601;48.718;8.992;2023-07-31T10:36:22;22.00;81.60
16970;DHT22;8601;48.718;8.992;2023-07-31T10:38:49;21.80;80.90
16970;DHT22;8601;48.718;8.992;2023-07-31T10:41:17;21.80;84.50
16970;DHT22;8601;48.718;8.992;2023-07-31T10:43:47;21.90;80.00
16970;DHT22;8601;48.718;8.992;2023-07-31T10:46:14;21.90;81.80
16970;DHT22;8601;48.718;8.992;2023-07-31T10:48:41;22.00;83.20
16970;DHT22;8601;48.718;8.992;2023-07-31T10:51:10;22.10;80.20
16970;DHT22;8601;48.718;8.992;2023-07-31T10:53:38;22.30;82.80
16970;DHT22;8601;48.718;8.992;2023-07-31T10:56:06;22.40;82.20
16970;DHT22;8601;48.718;8.992;2023-07-31T10:58:33;22.10;81.40
16970;DHT22;8601;48.718;8.992;2023-07-31T11:01:03;22.00;82.00
16970;DHT22;8601;48.718;8.992;2023-07-31T11:03:43;21.80;81.80
16970;DHT22;8601;48.718;8.992;2023-07-31T11:06:10;21.70;84.00
16970;DHT22;8601;48.718;8.992;2023-07-31T11:08:42;21.50;83.40
16970;DHT22;8601;48.718;8.992;2023-07-31T11:11:11;21.60;82.50
16970;DHT22;8601;48.718;8.992;2023-07-31T11:13:44;21.40;86.40
16970;DHT22;8601;48.718;8.992;2023-07-31T11:16:13;21.20;83.30
16970;DHT22;8601;48.718;8.992;2023-07-31T11:18:40;21.10;83.50
16970;DHT22;8601;48.718;8.992;2023-07-31T11:21:08;21.10;85.00
16970;DHT22;8601;48.718;8.992;2023-07-31T11:23:37;21.00;84.20
16970;DHT22;8601;48.718;8.992;2023-07-31T11:26:05;21.00;84.10
16970;DHT22;8601;48.718;8.992;2023-07-31T11:28:32;20.90;85.10
16970;DHT22;8601;48.718;8.992;2023-07-31T11:31:00;20.90;87.90
16970;DHT22;8601;48.718;8.992;2023-07-31T11:33:29;20.90;87.60
16970;DHT22;8601;48.718;8.992;2023-07-31T11:35:56;21.00;85.50
16970;DHT22;8601;48.718;8.992;2023-07-31T11:38:25;21.00;86.40
16970;DHT22;8601;48.718;8.992;2023-07-31T11:40:53;20.90;85.70
16970;DHT22;8601;48.718;8.992;2023-07-31T11:43:20;21.00;88.40
16970;DHT22;8601;48.718;8.992;2023-07-31T11:45:48;21.00;85.00
16970;DHT22;8601;48.718;8.992;2023-07-31T11:48:20;21.00;87.30
16970;DHT22;8601;48.718;8.992;2023-07-31T11:50:49;20.80;84.20
16970;DHT22;8601;48.718;8.992;2023-07-31T11:53:20;20.80;87.10
16970;DHT22;8601;48.718;8.992;2023-07-31T11:55:48;20.80;85.80
16970;DHT22;8601;48.718;8.992;2023-07-31T11:58:15;20.80;87.30
16970;DHT22;8601;48.718;8.992;2023-07-31T12:00:42;20.70;85.80
16970;DHT22;8601;48.718;8.992;2023-07-31T12:03:10;20.70;85.80
16970;DHT22;8601;48.718;8.992;2023-07-31T12:05:37;20.80;88.00
16970;DHT22;8601;48.718;8.992;2023-07-31T12:08:10;20.90;87.50
16970;DHT22;8601;48.718;8.992;2023-07-31T12:10:38;20.80;85.80
16970;DHT22;8601;48.718;8.992;2023-07-31T12:13:08;20.70;82.90
16970;DHT22;8601;48.718;8.992;2023-07-31T12:15:40;20.60;82.20
16970;DHT22;8601;48.718;8.992;2023-07-31T12:18:09;20.50;83.50
16970;DHT22;8601;48.718;8.992;2023-07-31T12:20:40;20.50;84.00
16970;DHT22;8601;48.718;8.992;2023-07-31T12:23:17;20.40;85.30
16970;DHT22;8601;48.718;8.992;2023-07-31T12:25:44;20.30;86.40
16970;DHT22;8601;48.718;8.992;2023-07-31T12:28:11;20.20;84.80
16970;DHT22;8601;48.718;8.992;2023-07-31T12:30:40;20.20;86.20
16970;DHT22;8601;48.718;8.992;2023-07-31T12:33:12;20.20;88.00
16970;DHT22;8601;48.718;8.992;2023-07-31T12:35:42;20.20;86.80
16970;DHT22;8601;48.718;8.992;2023-07-31T12:38:11;20.30;88.50
16970;DHT22;8601;48.718;8.992;2023-07-31T12:40:40;20.30;87.90
16970;DHT22;8601;48.718;8.992;2023-07-31T12:43:07;20.30;88.30
16970;DHT22;8601;48.718;8.992;2023-07-31T12:45:35;20.40;88.80
16970;DHT22;8601;48.718;8.992;2023-07-31T12:48:02;20.50;90.10
16970;DHT22;8601;48.718;8.992;2023-07-31T12:50:29;20.70;90.20
16970;DHT22;8601;48.718;8.992;2023-07-31T12:52:56;20.90;88.60
16970;DHT22;8601;48.718;8.992;2023-07-31T12:55:27;21.10;88.60
16970;DHT22;8601;48.718;8.992;2023-07-31T12:57:57;21.30;87.10
16970;DHT22;8601;48.718;8.992;2023-07-31T13:00:24;21.50;88.70
16970;DHT22;8601;48.718;8.992;2023-07-31T13:02:51;21.60;86.60
16970;DHT22;8601;48.718;8.992;2023-07-31T13:05:18;21.60;84.70
16970;DHT22;8601;48.718;8.992;2023-07-31T13:07:46;21.60;86.20
16970;DHT22;8601;48.718;8.992;2023-07-31T13:10:13;21.60;85.30
16970;DHT22;8601;48.718;8.992;2023-07-31T13:12:39;21.60;85.10
16970;DHT22;8601;48.718;8.992;2023-07-31T13:15:08;21.60;85.20
16970;DHT22;8601;48.718;8.992;2023-07-31T13:17:36;21.70;86.50
16970;DHT22;8601;48.718;8.992;2023-07-31T13:20:03;21.60;83.90
16970;DHT22;8601;48.718;8.992;2023-07-31T13:22:31;21.50;83.20
16970;DHT22;8601;48.718;8.992;2023-07-31T13:24:58;21.50;83.30
16970;DHT22;8601;48.718;8.992;2023-07-31T13:27:25;21.60;84.70
16970;DHT22;8601;48.718;8.992;2023-07-31T13:29:52;22.00;85.30
16970;DHT22;8601;48.718;8.992;2023-07-31T13:32:21;22.40;84.80
16970;DHT22;8601;48.718;8.992;2023-07-31T13:34:48;22.50;81.70
16970;DHT22;8601;48.718;8.992;2023-07-31T13:37:15;22.60;81.10
16970;DHT22;8601;48.718;8.992;2023-07-31T13:39:42;22.70;80.50
16970;DHT22;8601;48.718;8.992;2023-07-31T13:42:10;22.60;79.50
16970;DHT22;8601;48.718;8.992;2023-07-31T13:44:38;22.40;79.70
16970;DHT22;8601;48.718;8.992;2023-07-31T13:47:05;22.20;84.00
16970;DHT22;8601;48.718;8.992;2023-07-31T13:49:34;22.10;81.70
16970;DHT22;8601;48.718;8.992;2023-07-31T13:52:02;21.90;79.30
16970;DHT22;8601;48.718;8.992;2023-07-31T13:54:29;21.80;80.60
16970;DHT22;8601;48.718;8.992;2023-07-31T13:56:56;21.80;82.30
16970;DHT22;8601;48.718;8.992;2023-07-31T13:59:23;21.80;84.60
16970;DHT22;8601;48.718;8.992;2023-07-31T14:01:50;21.80;82.50
16970;DHT22;8601;48.718;8.992;2023-07-31T14:04:17;21.70;82.10
16970;DHT22;8601;48.718;8.992;2023-07-31T14:06:46;21.70;81.50
16970;DHT22;8601;48.718;8.992;2023-07-31T14:09:13;21.70;83.00
16970;DHT22;8601;48.718;8.992;2023-07-31T14:11:40;21.70;82.90
16970;DHT22;8601;48.718;8.992;2023-07-31T14:14:09;21.80;82.10
16970;DHT22;8601;48.718;8.992;2023-07-31T14:16:35;21.90;82.80
16970;DHT22;8601;48.718;8.992;2023-07-31T14:19:02;21.80;81.80
16970;DHT22;8601;48.718;8.992;2023-07-31T14:21:29;21.80;83.00
16970;DHT22;8601;48.718;8.992;2023-07-31T14:23:58;21.90;81.90
16970;DHT22;8601;48.718;8.992;2023-07-31T14:26:24;21.90;80.40
16970;DHT22;8601;48.718;8.992;2023-07-31T14:28:51;21.90;80.90
16970;DHT22;8601;48.718;8.992;2023-07-31T14:31:18;22.00;81.70
16970;DHT22;8601;48.718;8.992;2023-07-31T14:33:45;22.00;79.80
16970;DHT22;8601;48.718;8.992;2023-07-31T14:36:12;22.00;80.10
16970;DHT22;8601;48.718;8.992;2023-07-31T14:38:39;22.00;80.10
16970;DHT22;8601;48.718;8.992;2023-07-31T14:41:07;22.00;80.20
16970;DHT22;8601;48.718;8.992;2023-07-31T14:43:34;22.10;80.50
16970;DHT22;8601;48.718;8.992;2023-07-31T14:46:01;22.10;79.80
16970;DHT22;8601;48.718;8.992;2023-07-31T14:48:28;22.10;80.70
16970;DHT22;8601;48.718;8.992;2023-07-31T14:50:54;22.00;81.30
16970;DHT22;8601;48.718;8.992;2023-07-31T14:53:21;22.00;80.10
16970;DHT22;8601;48.718;8.992;2023-07-31T14:55:48;22.00;79.20
16970;DHT22;8601;48.718;8.992;2023-07-31T14:58:16;21.90;79.90
16970;DHT22;8601;48.718;8.992;2023-07-31T15:00:43;21.90;79.50
16970;DHT22;8601;48.718;8.992;2023-07-31T15:03:10;21.90;79.90
16970;DHT22;8601;48.718;8.992;2023-07-31T15:05:37;21.80;80.20
16970;DHT22;8601;48.718;8.992;2023-07-31T15:08:04;21.70;79.60
16970;DHT22;8601;48.718;8.992;2023-07-31T15:10:31;21.70;80.50
16970;DHT22;8601;48.718;8.992;2023-07-31T15:12:58;21.70;80.80
16970;DHT22;8601;48.718;8.992;2023-07-31T15:15:28;21.70;81.40
16970;DHT22;8601;48.718;8.992;2023-07-31T15:17:54;21.70;80.60
16970;DHT22;8601;48.718;8.992;2023-07-31T15:20:22;21.70;80.00
16970;DHT22;8601;48.718;8.992;2023-07-31T15:22:49;21.90;80.70
16970;DHT22;8601;48.718;8.992;2023-07-31T15:25:16;22.10;81.20
16970;DHT22;8601;48.718;8.992;2023-07-31T15:27:43;22.20;80.60
16970;DHT22;8601;48.718;8.992;2023-07-31T15:30:10;22.30;79.50
16970;DHT22;8601;48.718;8.992;2023-07-31T15:32:39;22.20;77.80
16970;DHT22;8601;48.718;8.992;2023-07-31T15:35:06;22.20;79.30
16970;DHT22;8601;48.718;8.992;2023-07-31T15:37:33;22.30;81.30
16970;DHT22;8601;48.718;8.992;2023-07-31T15:40:00;22.20;80.00
16970;DHT22;8601;48.718;8.992;2023-07-31T15:42:27;22.10;79.80
16970;DHT22;8601;48.718;8.992;2023-07-31T15:44:54;22.10;80.20
16970;DHT22;8601;48.718;8.992;2023-07-31T15:47:21;22.10;80.50
16970;DHT22;8601;48.718;8.992;2023-07-31T15:49:50;22.00;81.10
16970;DHT22;8601;48.718;8.992;2023-07-31T15:52:16;21.90;79.60